Stations météo

réclame
Mon MeteoGroup
Arcen aws, Pays-Bas (6391): Température de l'air & dewpoint: 12.01.2020 20:00:00 - 18.01.2020 20:00:00 (CET)Arcen aws, Pays-Bas (6391): Température de l'air 5cm: 12.01.2020 20:00:00 - 18.01.2020 20:00:00 (CET)Arcen aws, Pays-Bas (6391): Vitesse du vent & gusts: 12.01.2020 20:00:00 - 18.01.2020 20:00:00 (CET)Arcen aws, Pays-Bas (6391): Direction du vent: 12.01.2020 20:00:00 - 18.01.2020 20:00:00 (CET)Arcen aws, Pays-Bas (6391): Quantités de précipitations: 12.01.2020 20:00:00 - 18.01.2020 20:00:00 (CET)
Date & Time tt [°C] td [°C] tt 5cm [°C] ff [km/h] ff [knt] fx [km/h] fx [knt] dd rr [mm]
18.01.2020 20:00:00 - - - - - - - - -
18.01.2020 19:00:00 4,1 2,5 2,8 11 6 18 10 W 0,1
18.01.2020 18:00:00 5,4 2,0 4,8 11 6 25 14 W 0,0
18.01.2020 17:00:00 5,6 1,4 4,3 11 6 32 18 W 0,0
18.01.2020 16:00:00 7,0 2,0 6,1 14 8 32 18 W 0,0
18.01.2020 15:00:00 7,2 2,7 6,8 14 8 32 18 W 0,0
18.01.2020 14:00:00 6,8 3,4 6,6 14 8 29 16 WSW 0,0
18.01.2020 13:00:00 6,0 4,4 5,5 18 10 29 16 WSW 0,0
18.01.2020 12:00:00 4,3 4,0 4,3 11 6 32 18 SW 1,1
18.01.2020 11:00:00 4,6 3,4 4,7 14 8 29 16 WSW 0,2
18.01.2020 10:00:00 4,9 2,6 4,5 14 8 25 14 SW 0,0
18.01.2020 09:00:00 4,5 2,4 4,0 11 6 22 12 SW 0,0
18.01.2020 08:00:00 3,8 1,8 2,7 11 6 29 16 SW 0,0
18.01.2020 07:00:00 4,1 2,3 3,6 14 8 25 14 SW 0,0
18.01.2020 06:00:00 3,7 2,0 2,6 14 8 22 12 SW 0,0
18.01.2020 05:00:00 3,3 1,8 2,0 11 6 25 14 SW 0,0
18.01.2020 04:00:00 3,8 2,0 2,4 11 6 25 14 SW 0,0
18.01.2020 03:00:00 4,3 2,4 3,1 14 8 25 14 SW 0,0
18.01.2020 02:00:00 4,4 2,7 2,6 14 8 22 12 SW 0,0
18.01.2020 01:00:00 4,1 2,5 2,1 11 6 22 12 SSW 0,0
18.01.2020 00:00:00 4,3 2,3 2,1 11 6 22 12 SW 0,0
17.01.2020 23:00:00 6,3 2,5 5,3 14 8 25 14 WSW 0,0
17.01.2020 22:00:00 6,3 3,0 5,0 14 8 32 18 WSW 0,0
17.01.2020 21:00:00 7,5 3,2 6,4 14 8 29 16 WSW 0,0
17.01.2020 20:00:00 8,2 4,3 7,1 18 10 36 19 WSW 0,0
17.01.2020 19:00:00 8,3 5,2 6,8 14 8 29 16 WSW 0,0
17.01.2020 18:00:00 8,3 7,0 6,2 11 6 25 14 SSW 0,0
17.01.2020 17:00:00 9,2 7,4 8,1 14 8 29 16 SW 0,0
17.01.2020 16:00:00 9,3 7,9 8,9 14 8 25 14 SW 0,0
17.01.2020 15:00:00 9,1 7,9 8,8 14 8 25 14 SW 0,1
17.01.2020 14:00:00 9,0 7,7 8,8 14 8 25 14 SSW 0,2
17.01.2020 13:00:00 9,5 7,1 9,0 14 8 29 16 SSW 0,3
17.01.2020 12:00:00 10,4 5,6 9,7 14 8 29 16 SSW 0,0
17.01.2020 11:00:00 9,7 5,6 9,3 11 6 22 12 S 0,0
17.01.2020 10:00:00 9,5 5,3 9,1 14 8 25 14 SSE 0,0
17.01.2020 09:00:00 9,3 5,1 8,6 14 8 25 14 S 0,0
17.01.2020 08:00:00 8,5 4,8 7,4 11 6 18 10 S 0,0
17.01.2020 07:00:00 8,1 4,7 7,2 14 8 25 14 SSE 0,0
17.01.2020 06:00:00 8,8 4,8 7,8 14 8 25 14 SSE 0,0
17.01.2020 05:00:00 8,1 4,7 7,3 14 8 25 14 SSE 0,0
17.01.2020 04:00:00 8,3 4,9 7,5 14 8 25 14 SSE 0,0
17.01.2020 03:00:00 8,9 5,1 7,8 14 8 25 14 SE 0,0
17.01.2020 02:00:00 9,3 5,2 8,2 18 10 32 18 SSE 0,0
17.01.2020 01:00:00 9,3 5,3 7,4 11 6 22 12 SE 0,0
17.01.2020 00:00:00 8,5 5,1 7,2 11 6 22 12 SSE 0,0
16.01.2020 23:00:00 8,1 5,2 6,7 11 6 22 12 SSE 0,0
16.01.2020 22:00:00 8,7 5,5 7,7 14 8 25 14 SSE 0,0
16.01.2020 21:00:00 9,4 5,6 8,0 14 8 29 16 SSE 0,0
16.01.2020 20:00:00 9,6 5,7 8,4 14 8 25 14 SSE 0,0
16.01.2020 19:00:00 9,5 5,6 8,2 11 6 22 12 SSE 0,0
16.01.2020 18:00:00 9,4 5,1 8,0 11 6 18 10 SSE 0,0
16.01.2020 17:00:00 9,7 5,3 7,7 7 4 18 10 SE 0,0
16.01.2020 16:00:00 10,7 5,7 9,1 14 8 22 12 S 0,0
16.01.2020 15:00:00 10,9 6,5 9,7 11 6 22 12 SSE 0,0
16.01.2020 14:00:00 10,3 6,3 9,4 11 6 25 14 SSE 0,0
16.01.2020 13:00:00 9,5 6,2 8,3 14 8 22 12 SSE 0,0
16.01.2020 12:00:00 8,1 5,8 7,2 11 6 18 10 SSE 0,0
16.01.2020 11:00:00 6,6 5,0 6,6 7 4 11 6 SE 0,0
16.01.2020 10:00:00 4,5 4,1 3,4 4 2 11 6 ESE 0,0
16.01.2020 09:00:00 2,5 2,5 0,3 4 2 7 4 SE 0,0
16.01.2020 08:00:00 2,7 2,6 0,1 7 4 11 6 SSE 0,0
16.01.2020 07:00:00 2,9 2,9 0,5 7 4 7 4 S 0,0
16.01.2020 06:00:00 3,6 3,5 1,4 4 2 11 6 S 0,0
16.01.2020 05:00:00 4,1 4,0 1,4 7 4 14 8 SSW 0,0
16.01.2020 04:00:00 4,5 4,1 2,0 11 6 14 8 SSW 0,0
16.01.2020 03:00:00 4,8 4,4 3,0 7 4 18 10 S 0,0
16.01.2020 02:00:00 5,1 4,4 3,1 11 6 14 8 SSW 0,0
16.01.2020 01:00:00 5,4 4,3 3,4 7 4 18 10 SSW 0,0
16.01.2020 00:00:00 6,0 4,7 3,9 11 6 18 10 SW 0,0
15.01.2020 23:00:00 5,7 5,2 3,3 7 4 14 8 SW 0,0
15.01.2020 22:00:00 6,5 5,7 4,7 7 4 18 10 SW 0,0
15.01.2020 21:00:00 7,5 6,4 6,2 7 4 18 10 WSW 0,0
15.01.2020 20:00:00 8,5 7,6 8,3 11 6 32 18 WSW 0,2
15.01.2020 19:00:00 10,3 8,1 9,7 18 10 36 19 SW 0,2
15.01.2020 18:00:00 10,1 8,0 9,6 22 12 40 21 SW 0,5
15.01.2020 17:00:00 11,2 7,0 10,4 18 10 40 21 SSW 0,1
15.01.2020 16:00:00 12,3 5,9 11,4 25 14 40 21 SW 0,0
15.01.2020 15:00:00 12,6 6,0 11,7 25 14 47 25 SW 0,0
15.01.2020 14:00:00 13,3 4,9 12,3 22 12 47 25 SSW 0,0
15.01.2020 13:00:00 12,5 4,6 11,9 25 14 50 27 SSW 0,0
15.01.2020 12:00:00 11,9 4,4 11,2 25 14 43 23 SSW 0,0
15.01.2020 11:00:00 11,2 4,2 10,4 22 12 43 23 S 0,0
15.01.2020 10:00:00 11,1 4,3 10,1 22 12 47 25 S 0,0
15.01.2020 09:00:00 10,9 4,3 9,4 22 12 47 25 S 0,0
15.01.2020 08:00:00 11,0 4,7 9,2 18 10 40 21 SSW 0,0
15.01.2020 07:00:00 11,0 5,3 9,3 22 12 40 21 SSW 0,0
15.01.2020 06:00:00 11,3 6,0 9,6 22 12 50 27 SSW 0,0
15.01.2020 05:00:00 11,4 6,5 9,9 25 14 50 27 SSW 0,0
15.01.2020 04:00:00 11,3 6,8 9,3 22 12 43 23 SSW 0,0
15.01.2020 03:00:00 11,4 7,2 10,1 25 14 43 23 SSW 0,0
15.01.2020 02:00:00 12,0 7,0 10,9 22 12 47 25 SSW 0,0
15.01.2020 01:00:00 12,2 6,7 11,2 22 12 50 27 SSW 0,0
15.01.2020 00:00:00 12,5 6,4 11,6 22 12 43 23 SSW 0,0
14.01.2020 23:00:00 12,0 6,5 11,3 22 12 47 25 SSW 0,0
14.01.2020 22:00:00 11,6 6,2 10,9 25 14 58 31 SSW 0,0
14.01.2020 21:00:00 11,2 6,8 10,6 25 14 54 29 SSW 0,0
14.01.2020 20:00:00 11,6 7,7 10,9 29 16 54 29 SSW 0,0
14.01.2020 19:00:00 11,3 7,3 10,7 25 14 50 27 SSW 0,0
14.01.2020 18:00:00 10,9 6,4 10,3 29 16 50 27 SSW 0,0
14.01.2020 17:00:00 10,5 6,4 10,0 25 14 47 25 SSW 0,0
14.01.2020 16:00:00 11,0 6,2 10,5 25 14 47 25 SSW 0,0
14.01.2020 15:00:00 10,8 6,6 10,4 22 12 43 23 SSW 0,0
14.01.2020 14:00:00 10,4 6,9 10,0 18 10 40 21 S 0,0
14.01.2020 13:00:00 10,7 6,8 10,3 22 12 50 27 SSW 0,0
14.01.2020 12:00:00 10,8 6,7 10,3 25 14 43 23 SW 0,0
14.01.2020 11:00:00 10,8 6,6 10,1 18 10 47 25 SW 0,0
14.01.2020 10:00:00 10,4 6,6 9,6 22 12 40 21 SW 0,0
14.01.2020 09:00:00 10,1 6,8 9,4 22 12 43 23 SW 0,0
14.01.2020 08:00:00 9,7 7,1 9,1 25 14 61 33 SSW 0,0
14.01.2020 07:00:00 9,4 7,3 8,8 25 14 43 23 SSW 0,4
14.01.2020 06:00:00 9,6 7,3 9,0 25 14 47 25 SSW 0,4
14.01.2020 05:00:00 10,2 7,3 9,6 25 14 47 25 SSW 0,0
14.01.2020 04:00:00 10,5 7,2 9,8 22 12 43 23 S 0,0
14.01.2020 03:00:00 10,8 7,0 10,0 25 14 43 23 SSW 0,0
14.01.2020 02:00:00 10,9 7,0 10,1 29 16 47 25 SSW 0,0
14.01.2020 01:00:00 10,4 6,9 9,6 18 10 36 19 S 0,0
14.01.2020 00:00:00 10,2 6,7 9,5 22 12 36 19 S 0,0
13.01.2020 23:00:00 9,7 6,6 9,1 22 12 36 19 S 0,0
13.01.2020 22:00:00 8,7 6,0 8,1 14 8 22 12 S 0,0
13.01.2020 21:00:00 8,1 5,2 7,7 18 10 29 16 SSE 0,0
13.01.2020 20:00:00 8,0 4,8 7,6 18 10 32 18 SSE 0,0
13.01.2020 19:00:00 8,0 4,6 7,5 18 10 25 14 SSE 0,0
13.01.2020 18:00:00 7,7 4,1 7,0 14 8 25 14 SSE 0,0
13.01.2020 17:00:00 7,6 3,8 6,7 11 6 22 12 S 0,0
13.01.2020 16:00:00 8,1 4,7 6,9 11 6 29 16 S 0,0
13.01.2020 15:00:00 8,7 5,4 8,1 14 8 29 16 SSW 0,0
13.01.2020 14:00:00 8,2 5,9 8,2 11 6 22 12 S 0,0
13.01.2020 13:00:00 7,9 5,3 8,0 7 4 22 12 SSE 0,0
13.01.2020 12:00:00 7,7 5,4 7,7 11 6 18 10 S 0,0
13.01.2020 11:00:00 6,9 4,9 6,8 11 6 18 10 SSW 0,0
13.01.2020 10:00:00 5,8 5,1 4,5 7 4 14 8 S 0,0
13.01.2020 09:00:00 5,3 4,8 3,7 7 4 18 10 SSW 0,0
13.01.2020 08:00:00 6,0 5,2 4,7 11 6 18 10 SSW 0,0
13.01.2020 07:00:00 6,9 5,7 6,3 11 6 25 14 SSW 0,0
13.01.2020 06:00:00 6,9 6,2 6,6 11 6 22 12 SSW 0,0
13.01.2020 05:00:00 7,2 6,3 6,8 11 6 29 16 SW 0,0
13.01.2020 04:00:00 7,1 6,2 6,5 11 6 22 12 SW 0,0
13.01.2020 03:00:00 6,6 6,3 4,7 11 6 18 10 SSW 0,0
13.01.2020 02:00:00 7,0 6,4 6,2 11 6 18 10 SW 0,0
13.01.2020 01:00:00 7,0 6,6 6,1 11 6 18 10 SSW 0,0
13.01.2020 00:00:00 6,9 6,5 5,7 11 6 22 12 SSW 0,0
12.01.2020 23:00:00 7,6 7,1 7,2 11 6 25 14 SW 1,4
12.01.2020 22:00:00 8,0 7,3 7,7 14 8 36 19 W 1,1
12.01.2020 21:00:00 8,5 6,8 7,8 22 12 36 19 SW 0,0
12.01.2020 20:00:00 8,3 6,6 7,6 18 10 36 19 SW 0,0

tt = Température de l'air
td = dewpoint
tt 5cm = Température de l'air 5cm
ff = Vitesse du vent
fx = gusts
dd = Direction du vent
rr = Quantités de précipitations

stations d'obs. à proximité